createdAt,value
2023-05-10T00:01:24.610Z,6.50
2023-05-10T00:03:52.402Z,6.38
2023-05-10T00:06:20.256Z,7.57
2023-05-10T00:08:49.342Z,5.85
2023-05-10T00:11:17.107Z,6.53
2023-05-10T00:13:44.812Z,7.15
2023-05-10T00:16:14.082Z,7.68
2023-05-10T00:18:43.213Z,6.38
2023-05-10T00:21:11.690Z,7.70
2023-05-10T00:23:39.490Z,6.75
2023-05-10T00:26:08.494Z,7.35
2023-05-10T00:28:36.134Z,8.20
2023-05-10T00:31:03.817Z,6.78
2023-05-10T00:33:33.107Z,6.93
2023-05-10T00:36:00.788Z,6.15
2023-05-10T00:38:28.565Z,6.78
2023-05-10T00:40:56.526Z,8.18
2023-05-10T00:43:26.075Z,7.82
2023-05-10T00:45:54.366Z,8.23
2023-05-10T00:48:22.211Z,8.25
2023-05-10T00:50:50.020Z,8.52
2023-05-10T00:53:17.977Z,7.72
2023-05-10T00:55:45.756Z,7.15
2023-05-10T00:58:13.944Z,8.07
2023-05-10T01:00:44.391Z,8.65
2023-05-10T01:03:12.459Z,9.20
2023-05-10T01:05:40.315Z,7.95
2023-05-10T01:08:09.654Z,9.32
2023-05-10T01:10:37.374Z,10.10
2023-05-10T01:13:05.315Z,8.20
2023-05-10T01:15:34.078Z,8.90
2023-05-10T01:18:04.315Z,8.07
2023-05-10T01:20:38.245Z,9.52
2023-05-10T01:23:26.454Z,9.23
2023-05-10T01:26:09.110Z,8.20
2023-05-10T01:29:06.978Z,8.48
2023-05-10T01:31:45.639Z,8.55
2023-05-10T01:34:18.329Z,7.70
2023-05-10T01:36:48.080Z,8.02
2023-05-10T01:39:18.594Z,7.85
2023-05-10T01:41:50.084Z,6.88
2023-05-10T01:44:19.871Z,7.45
2023-05-10T01:46:51.174Z,6.82
2023-05-10T01:49:22.827Z,8.30
2023-05-10T01:51:55.355Z,6.75
2023-05-10T01:54:25.234Z,8.52
2023-05-10T01:56:57.180Z,7.45
2023-05-10T01:59:28.008Z,7.32
2023-05-10T02:01:56.481Z,8.15
2023-05-10T02:04:26.079Z,7.93
2023-05-10T02:06:55.044Z,7.93
2023-05-10T02:09:23.672Z,8.10
2023-05-10T02:11:52.203Z,7.47
2023-05-10T02:14:20.954Z,7.53
2023-05-10T02:16:49.381Z,7.45
2023-05-10T02:19:17.626Z,7.30
2023-05-10T02:21:47.525Z,7.93
2023-05-10T02:24:16.567Z,8.63
2023-05-10T02:26:44.398Z,9.98
2023-05-10T02:29:13.710Z,10.38
2023-05-10T02:31:44.658Z,10.15
2023-05-10T02:34:12.877Z,9.65
2023-05-10T02:36:41.425Z,8.80
2023-05-10T02:39:13.666Z,9.32
2023-05-10T02:41:43.908Z,9.50
2023-05-10T02:44:11.763Z,10.93
2023-05-10T02:46:39.581Z,8.80
2023-05-10T02:49:07.590Z,9.68
2023-05-10T02:51:37.428Z,9.77
2023-05-10T02:54:09.214Z,11.95
2023-05-10T02:56:42.016Z,10.25
2023-05-10T02:59:09.783Z,9.77
2023-05-10T03:01:39.621Z,10.30
2023-05-10T03:04:08.212Z,11.10
2023-05-10T03:06:36.022Z,9.45
2023-05-10T03:09:04.394Z,10.30
2023-05-10T03:11:38.364Z,10.85
2023-05-10T03:14:11.835Z,9.82
2023-05-10T03:16:44.942Z,11.05
2023-05-10T03:19:14.935Z,10.18
2023-05-10T03:21:43.938Z,12.20
2023-05-10T03:24:13.335Z,9.55
2023-05-10T03:26:41.210Z,9.48
2023-05-10T03:29:10.811Z,9.40
2023-05-10T03:31:38.586Z,8.68
2023-05-10T03:34:07.247Z,8.75
2023-05-10T03:36:34.982Z,8.57
2023-05-10T03:39:02.613Z,7.38
2023-05-10T03:41:30.381Z,9.90
2023-05-10T03:43:57.988Z,8.85
2023-05-10T03:46:27.182Z,7.60
2023-05-10T03:48:54.844Z,8.85
2023-05-10T03:51:23.318Z,7.95
2023-05-10T03:53:51.181Z,8.90
2023-05-10T03:56:18.968Z,9.23
2023-05-10T03:58:46.707Z,8.68
2023-05-10T04:01:14.380Z,7.53
2023-05-10T04:03:43.672Z,8.18
2023-05-10T04:06:12.858Z,7.70
2023-05-10T04:08:40.610Z,7.15
2023-05-10T04:11:10.866Z,8.10
2023-05-10T04:13:48.928Z,9.32
2023-05-10T04:16:16.578Z,8.98
2023-05-10T04:18:45.656Z,9.05
2023-05-10T04:21:13.567Z,7.53
2023-05-10T04:23:41.193Z,9.25
2023-05-10T04:26:09.132Z,8.35
2023-05-10T04:28:36.854Z,10.15
2023-05-10T04:31:05.101Z,9.23
2023-05-10T04:33:33.009Z,9.57
2023-05-10T04:36:02.401Z,12.52
2023-05-10T04:38:30.228Z,11.07
2023-05-10T04:41:05.916Z,10.23
2023-05-10T04:43:33.702Z,10.00
2023-05-10T04:46:01.405Z,9.95
2023-05-10T04:48:29.131Z,11.25
2023-05-10T04:50:57.384Z,9.95
2023-05-10T04:53:26.389Z,11.15
2023-05-10T04:55:54.022Z,10.65
2023-05-10T04:58:21.928Z,10.63
2023-05-10T05:00:49.564Z,10.60
2023-05-10T05:03:17.313Z,9.48
2023-05-10T05:05:45.521Z,9.32
2023-05-10T05:08:13.748Z,11.45
2023-05-10T05:10:42.765Z,9.57
2023-05-10T05:13:10.543Z,9.73
2023-05-10T05:15:39.803Z,10.35
2023-05-10T05:18:07.612Z,10.48
2023-05-10T05:20:35.512Z,9.13
2023-05-10T05:23:03.319Z,10.52
2023-05-10T05:25:31.107Z,9.02
2023-05-10T05:28:00.148Z,10.25
2023-05-10T05:30:27.935Z,9.10
2023-05-10T05:32:55.850Z,11.98
2023-05-10T05:35:23.842Z,9.20
2023-05-10T05:37:52.048Z,11.10
2023-05-10T05:40:19.722Z,10.63
2023-05-10T05:42:47.355Z,9.90
2023-05-10T05:45:16.884Z,9.25
2023-05-10T05:47:44.819Z,10.05
2023-05-10T05:50:12.510Z,9.13
2023-05-10T05:52:40.329Z,8.25
2023-05-10T05:55:08.289Z,9.52
2023-05-10T05:57:35.975Z,10.32
2023-05-10T06:00:05.087Z,10.02
2023-05-10T06:02:34.250Z,8.77
2023-05-10T06:05:02.077Z,8.55
2023-05-10T06:07:29.808Z,10.40
2023-05-10T06:09:57.467Z,9.60
2023-05-10T06:12:25.877Z,8.60
2023-05-10T06:14:53.515Z,8.55
2023-05-10T06:17:21.170Z,8.70
2023-05-10T06:19:50.124Z,9.55
2023-05-10T06:22:17.897Z,7.95
2023-05-10T06:24:45.717Z,7.00
2023-05-10T06:27:13.331Z,8.63
2023-05-10T06:29:41.199Z,7.85
2023-05-10T06:32:17.158Z,8.63
2023-05-10T06:34:45.705Z,7.75
2023-05-10T06:37:14.740Z,7.63
2023-05-10T06:39:42.371Z,6.55
2023-05-10T06:42:10.097Z,7.65
2023-05-10T06:44:37.988Z,8.07
2023-05-10T06:47:05.716Z,6.10
2023-05-10T06:49:33.367Z,5.70
2023-05-10T06:52:01.528Z,5.85
2023-05-10T06:54:30.521Z,5.93
2023-05-10T06:56:58.202Z,4.82
2023-05-10T06:59:26.095Z,5.68
2023-05-10T07:01:55.170Z,6.18
2023-05-10T07:04:23.305Z,6.18
2023-05-10T07:06:51.786Z,5.93
2023-05-10T07:09:19.479Z,5.30
2023-05-10T07:11:48.771Z,6.15
2023-05-10T07:14:16.508Z,5.97
2023-05-10T07:16:44.359Z,5.82
2023-05-10T07:19:12.068Z,5.47
2023-05-10T07:21:41.445Z,5.70
2023-05-10T07:24:09.381Z,5.72
2023-05-10T07:26:36.997Z,5.22
2023-05-10T07:29:06.849Z,5.93
2023-05-10T07:31:34.597Z,5.70
2023-05-10T07:34:02.311Z,6.80
2023-05-10T07:36:29.975Z,5.55
2023-05-10T07:38:58.607Z,5.70
2023-05-10T07:41:26.250Z,7.30
2023-05-10T07:43:53.936Z,5.53
2023-05-10T07:46:23.121Z,5.78
2023-05-10T07:48:50.953Z,5.75
2023-05-10T07:51:18.700Z,4.53
2023-05-10T07:53:46.551Z,5.63
2023-05-10T07:56:23.831Z,5.68
2023-05-10T07:58:51.493Z,5.80
2023-05-10T08:01:19.407Z,5.55
2023-05-10T08:03:48.805Z,6.07
2023-05-10T08:06:16.750Z,5.00
2023-05-10T08:08:44.693Z,5.00
2023-05-10T08:11:12.370Z,6.07
2023-05-10T08:13:40.048Z,6.72
2023-05-10T08:16:08.340Z,5.78
2023-05-10T08:18:36.236Z,5.45
2023-05-10T08:21:05.275Z,5.93
2023-05-10T08:23:32.985Z,5.78
2023-05-10T08:26:01.054Z,6.78
2023-05-10T08:28:28.740Z,6.07
2023-05-10T08:30:56.692Z,5.35
2023-05-10T08:33:24.490Z,5.28
2023-05-10T08:35:52.249Z,5.18
2023-05-10T08:38:21.445Z,5.10
2023-05-10T08:40:52.156Z,5.95
2023-05-10T08:43:21.057Z,7.20
2023-05-10T08:45:49.093Z,5.40
2023-05-10T08:48:17.420Z,5.22
2023-05-10T08:50:47.133Z,5.80
2023-05-10T08:53:15.277Z,5.65
2023-05-10T08:55:44.505Z,5.88
2023-05-10T08:58:12.153Z,5.32
2023-05-10T09:00:39.977Z,5.72
2023-05-10T09:03:08.219Z,4.82
2023-05-10T09:05:35.898Z,6.18
2023-05-10T09:08:03.542Z,5.43
2023-05-10T09:10:31.983Z,5.95
2023-05-10T09:13:01.059Z,5.20
2023-05-10T09:15:28.825Z,6.25
2023-05-10T09:17:56.757Z,5.93
2023-05-10T09:20:24.422Z,5.90
2023-05-10T09:22:52.181Z,5.50
2023-05-10T09:25:20.116Z,6.53
2023-05-10T09:27:48.770Z,5.45
2023-05-10T09:30:27.725Z,5.63
2023-05-10T09:32:56.009Z,6.97
2023-05-10T09:35:26.562Z,6.65
2023-05-10T09:37:58.409Z,6.78
2023-05-10T09:40:26.698Z,5.75
2023-05-10T09:42:55.385Z,6.05
2023-05-10T09:45:24.838Z,5.97
2023-05-10T09:47:52.599Z,6.32
2023-05-10T09:50:21.448Z,5.50
2023-05-10T09:52:50.085Z,5.07
2023-05-10T09:55:18.935Z,4.90
2023-05-10T09:57:47.567Z,5.95
2023-05-10T10:00:19.034Z,6.40
2023-05-10T10:02:49.504Z,5.60
2023-05-10T10:05:18.757Z,5.18
2023-05-10T10:07:46.768Z,5.45
2023-05-10T10:10:14.780Z,5.55
2023-05-10T10:12:43.326Z,7.32
2023-05-10T10:15:11.248Z,6.05
2023-05-10T10:17:40.117Z,6.50
2023-05-10T10:20:11.957Z,5.90
2023-05-10T10:22:40.170Z,6.68
2023-05-10T10:25:08.285Z,6.18
2023-05-10T10:27:41.915Z,5.80
2023-05-10T10:30:15.445Z,6.15
2023-05-10T10:32:53.248Z,5.30
2023-05-10T10:35:22.672Z,6.25
2023-05-10T10:37:51.998Z,6.18
2023-05-10T10:40:29.030Z,5.88
2023-05-10T10:42:56.923Z,6.05
2023-05-10T10:45:25.829Z,6.03
2023-05-10T10:48:15.958Z,5.38
2023-05-10T10:50:50.270Z,5.82
2023-05-10T10:53:19.850Z,5.13
2023-05-10T10:55:49.840Z,5.68
2023-05-10T10:58:33.280Z,6.10
2023-05-10T11:01:11.489Z,6.65
2023-05-10T11:03:39.552Z,5.93
2023-05-10T11:06:08.869Z,6.50
2023-05-10T11:08:43.208Z,6.15
2023-05-10T11:11:11.142Z,6.40
2023-05-10T11:13:42.524Z,6.30
2023-05-10T11:16:14.476Z,6.78
2023-05-10T11:18:53.727Z,7.07
2023-05-10T11:21:22.938Z,5.93
2023-05-10T11:23:51.610Z,6.78
2023-05-10T11:26:19.672Z,6.47
2023-05-10T11:28:48.511Z,5.95
2023-05-10T11:31:16.621Z,6.18
2023-05-10T11:33:46.012Z,6.43
2023-05-10T11:36:14.271Z,5.40
2023-05-10T11:38:44.664Z,7.45
2023-05-10T11:41:13.295Z,6.03
2023-05-10T11:43:41.913Z,6.28
2023-05-10T11:46:10.003Z,7.40
2023-05-10T11:48:38.047Z,6.60
2023-05-10T11:51:05.926Z,6.55
2023-05-10T11:53:34.309Z,5.60
2023-05-10T11:56:07.237Z,7.60
2023-05-10T11:58:35.277Z,8.13
2023-05-10T12:01:02.992Z,8.30
2023-05-10T12:03:30.996Z,8.15
2023-05-10T12:05:59.160Z,8.65
2023-05-10T12:08:27.879Z,8.00
2023-05-10T12:10:56.174Z,8.63
2023-05-10T12:13:25.203Z,7.18
2023-05-10T12:15:53.173Z,8.20
2023-05-10T12:18:24.990Z,8.27
2023-05-10T12:20:54.030Z,7.97
2023-05-10T12:23:22.104Z,7.50
2023-05-10T12:25:50.715Z,7.68
2023-05-10T12:28:21.236Z,7.72
2023-05-10T12:30:50.275Z,7.65
2023-05-10T12:33:19.424Z,7.93
2023-05-10T12:35:48.094Z,7.20
2023-05-10T12:38:26.395Z,7.75
2023-05-10T12:40:54.266Z,5.82
2023-05-10T12:43:22.034Z,6.45
2023-05-10T12:45:51.313Z,6.60
2023-05-10T12:48:19.049Z,6.05
2023-05-10T12:50:47.225Z,6.18
2023-05-10T12:53:16.484Z,7.22
2023-05-10T12:55:44.444Z,6.97
2023-05-10T12:58:15.833Z,6.53
2023-05-10T13:00:48.942Z,6.63
2023-05-10T13:03:18.087Z,6.18
2023-05-10T13:05:46.502Z,6.90
2023-05-10T13:08:14.172Z,6.70
2023-05-10T13:10:41.854Z,6.53
2023-05-10T13:13:09.647Z,6.13
2023-05-10T13:15:37.368Z,6.78
2023-05-10T13:18:05.123Z,6.85
2023-05-10T13:20:34.164Z,7.10
2023-05-10T13:23:01.973Z,6.78
2023-05-10T13:25:29.655Z,7.43
2023-05-10T13:27:57.308Z,7.05
2023-05-10T13:30:26.114Z,6.93
2023-05-10T13:32:54.097Z,7.45
2023-05-10T13:35:21.823Z,6.97
2023-05-10T13:37:51.081Z,7.13
2023-05-10T13:40:18.987Z,5.63
2023-05-10T13:42:47.038Z,4.28
2023-05-10T13:45:15.543Z,4.18
2023-05-10T13:47:43.538Z,4.43
2023-05-10T13:50:11.416Z,4.57
2023-05-10T13:52:39.102Z,4.97
2023-05-10T13:55:09.558Z,4.80
2023-05-10T13:57:37.994Z,5.22
2023-05-10T14:00:06.416Z,5.10
2023-05-10T14:02:34.206Z,5.78
2023-05-10T14:05:02.372Z,5.22
2023-05-10T14:07:30.001Z,6.03
2023-05-10T14:09:57.648Z,5.70
2023-05-10T14:15:40.202Z,5.05
2023-05-10T14:18:08.037Z,5.38
2023-05-10T14:20:35.672Z,5.45
2023-05-10T14:23:03.602Z,6.10
2023-05-10T14:25:32.154Z,6.05
2023-05-10T14:27:59.792Z,5.72
2023-05-10T14:30:27.523Z,6.95
2023-05-10T14:32:59.568Z,7.25
2023-05-10T14:35:27.698Z,5.45
2023-05-10T14:37:55.397Z,5.10
2023-05-10T14:40:23.792Z,4.88
2023-05-10T14:42:54.586Z,5.63
2023-05-10T14:45:22.674Z,5.72
2023-05-10T14:47:50.477Z,5.50
2023-05-10T14:50:35.225Z,6.15
2023-05-10T14:53:03.497Z,6.78
2023-05-10T14:55:31.181Z,7.15
2023-05-10T14:57:59.333Z,7.53
2023-05-10T15:00:27.480Z,7.38
2023-05-10T15:02:55.856Z,8.02
2023-05-10T15:05:26.480Z,6.80
2023-05-10T15:07:54.460Z,5.88
2023-05-10T15:10:22.171Z,6.20
2023-05-10T15:12:50.315Z,6.63
2023-05-10T15:15:18.866Z,7.70
2023-05-10T15:17:47.007Z,6.78
2023-05-10T15:20:15.067Z,6.32
2023-05-10T15:22:44.017Z,6.68
2023-05-10T15:25:11.721Z,6.68
2023-05-10T15:27:39.497Z,6.50
2023-05-10T15:30:08.323Z,5.97
2023-05-10T15:32:36.112Z,4.88
2023-05-10T15:35:03.783Z,3.17
2023-05-10T15:37:31.611Z,2.33
2023-05-10T15:40:04.770Z,4.57
2023-05-10T15:42:32.879Z,2.30
2023-05-10T15:45:01.337Z,2.78
2023-05-10T15:47:29.178Z,2.28
2023-05-10T15:49:56.820Z,1.73
2023-05-10T15:52:24.728Z,1.63
2023-05-10T15:54:52.542Z,1.63
2023-05-10T15:57:21.516Z,2.72
2023-05-10T15:59:49.201Z,2.10
2023-05-10T16:02:17.678Z,1.92
2023-05-10T16:04:45.741Z,2.17
2023-05-10T16:07:13.441Z,2.97
2023-05-10T16:09:41.858Z,2.30
2023-05-10T16:12:09.844Z,2.38
2023-05-10T16:14:38.995Z,2.20
2023-05-10T16:17:09.140Z,2.17
2023-05-10T16:19:36.830Z,2.67
2023-05-10T16:22:04.556Z,2.78
2023-05-10T16:24:32.953Z,2.53
2023-05-10T16:27:00.628Z,2.78
2023-05-10T16:29:28.269Z,2.60
2023-05-10T16:31:57.308Z,2.70
2023-05-10T16:34:25.430Z,3.58
2023-05-10T16:36:53.168Z,2.45
2023-05-10T16:39:20.825Z,2.67
2023-05-10T16:41:48.488Z,2.20
2023-05-10T16:44:18.138Z,2.60
2023-05-10T16:49:16.539Z,2.13
2023-05-10T16:51:44.254Z,2.22
2023-05-10T16:54:17.819Z,2.67
2023-05-10T16:56:45.497Z,2.30
2023-05-10T16:59:15.286Z,1.85
2023-05-10T17:01:43.184Z,1.73
2023-05-10T17:04:11.122Z,2.30
2023-05-10T17:06:40.687Z,2.45
2023-05-10T17:09:08.372Z,2.08
2023-05-10T17:11:36.020Z,2.17
2023-05-10T17:14:03.747Z,2.55
2023-05-10T17:16:31.473Z,2.78
2023-05-10T17:18:59.486Z,2.10
2023-05-10T17:21:27.758Z,3.25
2023-05-10T17:23:56.985Z,1.95
2023-05-10T17:26:24.942Z,2.47
2023-05-10T17:28:54.085Z,2.53
2023-05-10T17:31:21.828Z,2.72
2023-05-10T17:33:59.634Z,2.20
2023-05-10T17:36:28.505Z,2.30
2023-05-10T17:38:57.541Z,1.65
2023-05-10T17:41:25.463Z,2.28
2023-05-10T17:43:53.724Z,2.50
2023-05-10T17:46:21.644Z,2.58
2023-05-10T17:48:49.379Z,2.35
2023-05-10T17:51:17.211Z,2.40
2023-05-10T17:53:45.097Z,3.03
2023-05-10T17:56:16.884Z,2.35
2023-05-10T17:58:44.699Z,2.40
2023-05-10T18:01:12.378Z,2.70
2023-05-10T18:03:42.165Z,2.15
2023-05-10T18:06:09.922Z,2.10
2023-05-10T18:08:37.664Z,2.15
2023-05-10T18:11:05.456Z,2.85
2023-05-10T18:13:34.440Z,2.10
2023-05-10T18:16:02.102Z,1.63
2023-05-10T18:18:30.001Z,1.90
2023-05-10T18:20:58.296Z,2.25
2023-05-10T18:23:26.392Z,2.08
2023-05-10T18:25:54.567Z,2.05
2023-05-10T18:28:22.246Z,2.08
2023-05-10T18:30:51.925Z,2.47
2023-05-10T18:33:19.986Z,2.42
2023-05-10T18:35:49.619Z,3.95
2023-05-10T18:38:17.412Z,3.58
2023-05-10T18:40:45.105Z,4.10
2023-05-10T18:43:12.788Z,4.95
2023-05-10T18:45:40.763Z,4.60
2023-05-10T18:48:09.987Z,4.85
2023-05-10T18:50:37.976Z,5.38
2023-05-10T18:53:05.597Z,5.25
2023-05-10T18:55:33.355Z,6.65
2023-05-10T18:58:00.962Z,6.55
2023-05-10T19:00:28.578Z,7.05
2023-05-10T19:02:56.464Z,7.68
2023-05-10T19:05:29.937Z,7.28
2023-05-10T19:07:57.918Z,7.50
2023-05-10T19:10:25.686Z,8.30
2023-05-10T19:12:53.393Z,9.95
2023-05-10T19:15:22.009Z,9.25
2023-05-10T19:17:52.567Z,9.13
2023-05-10T19:20:20.532Z,8.88
2023-05-10T19:25:24.377Z,10.05
2023-05-10T19:27:52.074Z,10.43
2023-05-10T19:30:19.751Z,9.90
2023-05-10T19:35:52.501Z,9.23
2023-05-10T19:38:26.449Z,9.52
2023-05-10T19:40:58.209Z,9.30
2023-05-10T19:43:26.125Z,10.25
2023-05-10T19:45:53.882Z,9.30
2023-05-10T19:48:21.722Z,8.95
2023-05-10T19:50:49.422Z,9.27
2023-05-10T19:53:19.923Z,10.82
2023-05-10T19:55:48.907Z,9.05
2023-05-10T19:58:21.414Z,8.77
2023-05-10T20:00:49.085Z,8.55
2023-05-10T20:03:16.822Z,9.48
2023-05-10T20:05:45.717Z,10.38
2023-05-10T20:08:13.752Z,11.52
2023-05-10T20:10:41.550Z,11.00
2023-05-10T20:13:10.741Z,9.18
2023-05-10T20:15:40.129Z,11.60
2023-05-10T20:18:11.132Z,11.13
2023-05-10T20:20:38.926Z,10.48
2023-05-10T20:23:06.858Z,11.95
2023-05-10T20:25:34.676Z,9.10
2023-05-10T20:28:02.405Z,9.18
2023-05-10T20:30:31.646Z,5.88
2023-05-10T20:32:59.436Z,4.93
2023-05-10T20:35:27.094Z,6.55
2023-05-10T20:37:54.750Z,4.97
2023-05-10T20:40:22.459Z,3.70
2023-05-10T20:42:52.019Z,3.90
2023-05-10T20:45:23.077Z,3.45
2023-05-10T20:47:52.602Z,2.85
2023-05-10T20:50:20.500Z,2.60
2023-05-10T20:52:51.088Z,3.28
2023-05-10T20:55:18.990Z,2.50
2023-05-10T20:57:47.101Z,2.20
2023-05-10T21:00:15.477Z,1.83
2023-05-10T21:02:44.469Z,2.65
2023-05-10T21:05:13.687Z,3.15
2023-05-10T21:07:41.465Z,2.30
2023-05-10T21:10:10.414Z,1.83
2023-05-10T21:12:38.089Z,2.22
2023-05-10T21:15:06.138Z,2.00
2023-05-10T21:17:33.830Z,2.85
2023-05-10T21:20:01.535Z,2.25
2023-05-10T21:22:30.556Z,2.33
2023-05-10T21:24:58.354Z,2.85
2023-05-10T21:27:26.043Z,1.98
2023-05-10T21:29:53.772Z,2.45
2023-05-10T21:32:21.752Z,2.15
2023-05-10T21:34:49.627Z,2.10
2023-05-10T21:37:17.585Z,2.42
2023-05-10T21:39:46.614Z,2.20
2023-05-10T21:42:14.390Z,2.20
2023-05-10T21:44:42.821Z,2.65
2023-05-10T21:47:10.579Z,2.70
2023-05-10T21:49:38.252Z,2.63
2023-05-10T21:52:06.096Z,2.58
2023-05-10T21:54:34.386Z,2.33
2023-05-10T21:57:03.420Z,3.33
2023-05-10T21:59:31.009Z,2.97
2023-05-10T22:01:58.996Z,2.95
2023-05-10T22:04:26.745Z,3.58
2023-05-10T22:06:55.449Z,3.33
2023-05-10T22:09:24.372Z,1.90
2023-05-10T22:11:52.115Z,2.55
2023-05-10T22:14:21.152Z,3.60
2023-05-10T22:16:48.886Z,2.95
2023-05-10T22:19:16.587Z,2.90
2023-05-10T22:21:44.231Z,2.58
2023-05-10T22:24:11.856Z,2.67
2023-05-10T22:26:39.583Z,2.95
2023-05-10T22:29:07.272Z,2.83
2023-05-10T22:31:36.491Z,3.28
2023-05-10T22:34:04.153Z,2.83
2023-05-10T22:36:32.465Z,3.30
2023-05-10T22:39:00.172Z,3.58
2023-05-10T22:41:27.914Z,2.75
2023-05-10T22:43:56.488Z,3.25
2023-05-10T22:46:24.512Z,6.43
2023-05-10T22:48:53.787Z,3.90
2023-05-10T22:51:21.526Z,3.33
2023-05-10T22:53:49.214Z,2.80
2023-05-10T22:56:16.913Z,3.13
2023-05-10T22:58:44.697Z,3.53
2023-05-10T23:01:12.305Z,3.38
2023-05-10T23:03:40.208Z,3.78
2023-05-10T23:06:10.031Z,3.50
2023-05-10T23:08:37.751Z,3.92
2023-05-10T23:11:05.379Z,2.95
2023-05-10T23:13:33.018Z,3.63
2023-05-10T23:16:06.000Z,3.63
2023-05-10T23:18:33.881Z,4.20
2023-05-10T23:21:01.541Z,3.08
2023-05-10T23:23:31.087Z,2.85
2023-05-10T23:25:59.415Z,3.22
2023-05-10T23:28:27.119Z,3.33
2023-05-10T23:30:58.216Z,4.25
2023-05-10T23:33:26.574Z,3.97
2023-05-10T23:35:54.404Z,3.05
2023-05-10T23:38:22.035Z,3.42
2023-05-10T23:40:51.596Z,3.10
2023-05-10T23:43:19.840Z,3.63
2023-05-10T23:45:53.879Z,4.13
2023-05-10T23:48:21.558Z,3.28
2023-05-10T23:50:50.260Z,3.25
2023-05-10T23:53:18.066Z,3.55
2023-05-10T23:55:46.341Z,3.42
2023-05-10T23:58:15.366Z,3.08
